| Date | Time | Temp. (oF) | Dew Point (oF) | Rel. Hum. (%) | Press. (in.) | Wind Dir. | Wind Speed (mph) | Hourly Rainfall (in.) |
|
|---|---|---|---|---|---|---|---|---|---|
| 1 | 08/22 | 00:00 | 71 | 66 | 85 | 29.88 | SW | 0 | 0.00 |
| 2 | 08/21 | 23:00 | 73 | 66 | 79 | 29.88 | SW | 0 | 0.00 |
| 3 | 08/21 | 22:00 | 76 | 64 | 68 | 29.88 | W | 1 | 0.00 |
| 4 | 08/21 | 21:00 | 77 | 63 | 64 | 29.87 | SSW | 4 | 0.00 |
| 5 | 08/21 | 20:00 | 84 | 62 | 48 | 29.84 | W | 4 | 0.00 |
| 6 | miss | miss | miss | miss | miss | miss | miss | miss | |
| 7 | 08/21 | 19:21 | 86 | 62 | 46 | 29.83 | W | 3 | 0.00 |
| 8 | miss | miss | miss | miss | miss | miss | miss | miss | |
| 9 | 08/21 | 19:19 | 86 | 61 | 45 | 29.83 | W | 4 | 0.00 |
| 10 | miss | miss | miss | miss | miss | miss | miss | miss | |
| 11 | 08/21 | 19:17 | 86 | 62 | 46 | 29.83 | WNW | 4 | 0.00 |
| 12 | miss | miss | miss | miss | miss | miss | miss | miss | |
| 13 | 08/21 | 19:15 | 87 | 63 | 46 | 29.83 | WSW | 8 | 0.00 |
| 14 | miss | miss | miss | miss | miss | miss | miss | miss | |
| 15 | 08/21 | 19:13 | 87 | 63 | 46 | 29.83 | WSW | 3 | 0.00 |
| 16 | miss | miss | miss | miss | miss | miss | miss | miss | |
| 17 | 08/21 | 19:11 | 87 | 63 | 46 | 29.83 | W | 4 | 0.00 |
| 18 | miss | miss | miss | miss | miss | miss | miss | miss | |
| 19 | 08/21 | 19:09 | 87 | 63 | 46 | 29.82 | NNW | 6 | 0.00 |
| 20 | miss | miss | miss | miss | miss | miss | miss | miss | |
| 21 | 08/21 | 19:07 | 87 | 63 | 46 | 29.83 | NNW | 1 | 0.00 |
| 22 | miss | miss | miss | miss | miss | miss | miss | miss | |
| 23 | 08/21 | 19:05 | 87 | 63 | 46 | 29.82 | W | 8 | 0.00 |
| 24 | miss | miss | miss | miss | miss | miss | miss | miss | |
| 25 | 08/21 | 19:03 | 87 | 63 | 46 | 29.82 | WSW | 6 | 0.00 |
| 26 | miss | miss | miss | miss | miss | miss | miss | miss | |
| 27 | 08/21 | 19:03 | 87 | 63 | 46 | 29.82 | WSW | 6 | 0.00 |
| 28 | miss | miss | miss | miss | miss | miss | miss | miss | |
| 29 | 08/21 | 19:03 | 87 | 63 | 46 | 29.82 | WSW | 6 | 0.00 |
| 30 | 08/21 | 19:00 | 87 | 64 | 47 | 29.82 | W | 4 | 0.00 |
| 31 | 08/21 | 18:00 | 89 | 64 | 44 | 29.83 | SW | 6 | 0.00 |
| 32 | 08/21 | 17:00 | 92 | 66 | 44 | 29.83 | WSW | 11 | 0.00 |
| 33 | 08/21 | 16:00 | 92 | 66 | 43 | 29.84 | W | 5 | 0.00 |
| 34 | 08/21 | 15:00 | 92 | 71 | 51 | 29.87 | NW | 6 | 0.00 |
| 35 | 08/21 | 14:00 | 91 | 71 | 53 | 29.88 | SSW | 8 | 0.00 |
| 36 | 08/21 | 13:00 | 89 | 76 | 66 | 29.89 | W | 4 | 0.00 |
| 37 | 08/21 | 12:00 | 88 | 75 | 66 | 29.90 | W | 8 | 0.00 |
| 38 | 08/21 | 11:00 | 86 | 75 | 70 | 29.91 | N | 4 | 0.00 |
| 39 | 08/21 | 10:00 | 84 | 75 | 77 | 29.91 | NW | 7 | 0.00 |
| 40 | 08/21 | 09:00 | 80 | 77 | 91 | 29.91 | WSW | 2 | 0.00 |
| 41 | 08/21 | 08:00 | 77 | 77 | 100 | 29.91 | WNW | 1 | 0.00 |
| 42 | 08/21 | 07:00 | 76 | 76 | 100 | 29.90 | WSW | 1 | 0.00 |
| 43 | 08/21 | 06:00 | 77 | 77 | 100 | 29.88 | SW | 0 | 0.00 |
| 44 | 08/21 | 05:00 | 77 | 77 | 100 | 29.88 | S | 0 | 0.00 |
| 45 | 08/21 | 04:00 | 77 | 77 | 100 | 29.88 | SSW | 3 | 0.00 |
| 46 | 08/21 | 03:00 | 78 | 77 | 100 | 29.88 | S | 1 | 0.00 |
| 47 | 08/21 | 02:00 | 78 | 77 | 100 | 29.90 | S | 1 | 0.00 |
| 48 | 08/21 | 01:00 | 79 | 78 | 99 | 29.92 | S | 7 | 0.00 |
| 49 | 08/21 | 00:00 | 78 | 77 | 99 | 29.89 | S | 4 | 0.00 |
| 50 | 08/20 | 23:00 | 78 | 77 | 97 | 29.93 | SSE | 3 | 0.00 |
| 51 | 08/20 | 22:00 | 79 | 76 | 93 | 29.96 | SSE | 2 | 0.00 |
| 52 | 08/20 | 21:00 | 80 | 76 | 90 | 29.96 | S | 1 | 0.00 |
| 53 | 08/20 | 20:00 | 83 | 76 | 81 | 29.95 | S | 1 | 0.00 |
| 54 | 08/20 | 19:00 | 85 | 76 | 77 | 29.92 | SSE | 2 | 0.00 |
| 55 | 08/20 | 18:00 | 86 | 75 | 72 | 29.93 | SSW | 4 | 0.00 |
| 56 | 08/20 | 17:00 | 86 | 74 | 69 | 29.94 | S | 4 | 0.00 |
| 57 | 08/20 | 16:00 | 86 | 77 | 75 | 29.97 | S | 5 | 0.00 |
| 58 | 08/20 | 15:00 | 84 | 76 | 78 | 29.98 | W | 2 | 0.00 |
| 59 | 08/20 | 14:00 | 83 | 76 | 81 | 30.01 | SW | 4 | 0.00 |
| 60 | 08/20 | 13:00 | 79 | 76 | 91 | 30.03 | WNW | 2 | 0.00 |
| 61 | 08/20 | 12:00 | 77 | 75 | 95 | 30.04 | SSW | 2 | 0.00 |
| 62 | 08/20 | 11:00 | 76 | 75 | 98 | 30.05 | S | 1 | 0.00 |
| 63 | 08/20 | 10:00 | 74 | 73 | 100 | 30.04 | SE | 4 | 0.00 |
| 64 | 08/20 | 09:00 | 72 | 72 | 100 | 30.05 | SSE | 0 | 0.00 |
| 65 | 08/20 | 08:00 | 72 | 72 | 100 | 30.04 | NNE | 2 | 0.00 |
| 66 | 08/20 | 07:00 | 71 | 71 | 100 | 30.03 | NNE | 0 | 0.00 |
| 67 | 08/20 | 06:00 | 71 | 70 | 99 | 30.02 | NE | 0 | 0.00 |
| 68 | 08/20 | 05:00 | 71 | 70 | 98 | 30.02 | N | 0 | 0.00 |
| 69 | 08/20 | 04:00 | 70 | 69 | 97 | 30.02 | ESE | 0 | 0.00 |
| 70 | 08/20 | 03:00 | 70 | 68 | 96 | 30.03 | SSE | 1 | 0.00 |
| 71 | 08/20 | 02:00 | 70 | 68 | 96 | 30.04 | E | 1 | 0.00 |
| 72 | 08/20 | 01:00 | 70 | 68 | 96 | 30.05 | E | 2 | 0.00 |
| 73 | 08/20 | 00:00 | 70 | 69 | 97 | 30.06 | E | 1 | 0.00 |